Time;durP1;ratioP1;P1;durP2;ratioP2;P2;SDS_P1;SDS_P2;PMS_P1;PMS_P2;Temp;Humidity;BMP_temperature;BMP_pressure;BME280_temperature;BME280_humidity;BME280_pressure;Samples;Min_cycle;Max_cycle;Signal;HPM_P1;HPM_P2
2021/03/27 00:01:55;;;;;;;20.10;16.40;;;9.80;1.00;;;;;;5067592;28;21002;-59
2021/03/27 00:04:33;;;;;;;22.50;16.00;;;9.80;1.00;;;;;;5071691;28;20445;-59
2021/03/27 00:07:20;;;;;;;18.60;15.70;;;9.70;1.00;;;;;;5073576;28;20960;-59
2021/03/27 00:10:01;;;;;;;21.43;17.10;;;9.70;1.00;;;;;;5070838;28;20913;-59
2021/03/27 00:12:54;;;;;;;22.60;16.43;;;9.70;1.00;;;;;;5069800;28;20507;-58
2021/03/27 00:15:39;;;;;;;23.37;16.10;;;9.70;1.00;;;;;;5071571;28;20443;-59
2021/03/27 00:18:35;;;;;;;19.50;15.67;;;9.70;1.00;;;;;;5073609;28;20537;-59
2021/03/27 00:21:09;;;;;;;17.43;13.80;;;9.60;1.00;;;;;;5048934;28;20498;-58
2021/03/27 00:23:42;;;;;;;22.20;15.93;;;9.60;1.00;;;;;;5070461;28;20469;-59
2021/03/27 00:26:16;;;;;;;18.40;15.33;;;9.50;1.00;;;;;;5073799;28;20981;-59
2021/03/27 00:29:01;;;;;;;15.90;13.47;;;9.60;1.00;;;;;;5072018;28;21122;-58
2021/03/27 00:31:33;;;;;;;16.30;13.93;;;9.60;1.00;;;;;;5068596;28;20442;-59
2021/03/27 00:34:03;;;;;;;18.43;14.17;;;9.60;1.00;;;;;;5069208;28;21018;-59
2021/03/27 00:37:00;;;;;;;17.87;13.80;;;9.60;1.00;;;;;;5073208;28;20431;-59
2021/03/27 00:39:38;;;;;;;16.60;14.13;;;9.60;1.00;;;;;;5061010;28;20955;-59
2021/03/27 00:42:16;;;;;;;17.30;14.10;;;9.60;1.00;;;;;;5071578;28;20520;-59
2021/03/27 00:44:54;;;;;;;17.83;15.13;;;9.60;1.00;;;;;;5072689;28;20446;-58
2021/03/27 00:47:25;;;;;;;19.47;13.33;;;9.50;1.00;;;;;;5072479;28;20492;-58
2021/03/27 00:50:00;;;;;;;18.23;14.83;;;9.50;1.00;;;;;;5067933;28;21103;-59
2021/03/27 00:52:27;;;;;;;16.83;13.60;;;9.50;1.00;;;;;;5072218;28;20530;-59
2021/03/27 00:55:09;;;;;;;18.97;13.47;;;9.40;1.00;;;;;;5072202;28;20983;-59
2021/03/27 00:57:40;;;;;;;19.60;15.53;;;9.40;1.00;;;;;;5072071;28;20543;-58
2021/03/27 01:00:18;;;;;;;17.70;14.37;;;9.40;1.00;;;;;;5071247;28;20446;-59
2021/03/27 01:02:51;;;;;;;19.07;14.40;;;9.30;1.00;;;;;;5070801;28;20453;-59
2021/03/27 01:05:20;;;;;;;18.33;14.50;;;9.20;1.00;;;;;;5070203;28;20841;-59
2021/03/27 01:07:48;;;;;;;13.80;12.40;;;9.20;1.00;;;;;;5072921;28;20430;-59
2021/03/27 01:10:29;;;;;;;16.43;12.50;;;9.20;1.00;;;;;;5073266;28;20442;-59
2021/03/27 01:12:56;;;;;;;16.60;13.20;;;9.30;1.00;;;;;;5069755;28;20457;-59
2021/03/27 01:15:26;;;;;;;18.80;14.30;;;9.40;1.00;;;;;;5071440;28;20451;-59
2021/03/27 01:17:54;;;;;;;17.47;12.67;;;9.30;1.00;;;;;;5072624;28;20430;-58
2021/03/27 01:20:31;;;;;;;14.97;12.60;;;9.30;1.00;;;;;;5079148;28;20458;-60
2021/03/27 01:22:57;;;;;;;16.07;12.70;;;9.30;1.00;;;;;;5071820;28;20862;-59
2021/03/27 01:25:27;;;;;;;16.47;13.40;;;9.30;1.00;;;;;;5072746;28;20466;-58
2021/03/27 01:28:04;;;;;;;16.50;13.70;;;9.30;1.00;;;;;;5073004;28;20765;-59
2021/03/27 01:30:32;;;;;;;17.63;12.87;;;9.30;1.00;;;;;;5072087;28;20451;-58
2021/03/27 01:33:09;;;;;;;15.90;13.50;;;9.30;1.00;;;;;;5071085;28;20446;-58
2021/03/27 01:35:44;;;;;;;15.23;12.13;;;9.20;1.00;;;;;;5068682;28;20450;-58
2021/03/27 01:38:24;;;;;;;14.73;12.47;;;9.30;1.00;;;;;;5072499;28;20794;-60
2021/03/27 01:41:12;;;;;;;13.70;11.27;;;9.30;1.00;;;;;;5069571;28;20897;-58
2021/03/27 01:43:37;;;;;;;16.53;12.53;;;9.20;1.00;;;;;;5068797;28;20480;-60
2021/03/27 01:46:24;;;;;;;15.67;13.10;;;9.30;1.00;;;;;;5070263;28;20798;-59
2021/03/27 01:49:20;;;;;;;16.73;12.47;;;9.40;1.00;;;;;;5075851;28;20194;-59
2021/03/27 01:52:03;;;;;;;16.57;12.67;;;9.40;1.00;;;;;;5072430;28;20935;-59
2021/03/27 01:54:50;;;;;;;16.23;13.23;;;9.60;1.00;;;;;;5074990;28;20822;-58
2021/03/27 01:57:24;;;;;;;29.27;12.80;;;9.70;1.00;;;;;;5075703;28;20453;-58
2021/03/27 01:59:58;;;;;;;17.83;12.97;;;9.80;1.00;;;;;;5071280;28;20443;-59
2021/03/27 02:02:34;;;;;;;17.43;12.73;;;9.90;1.00;;;;;;5074501;28;20458;-59
2021/03/27 02:05:08;;;;;;;13.27;11.87;;;10.00;1.00;;;;;;5068581;28;20446;-59
2021/03/27 02:07:40;;;;;;;20.40;12.60;;;10.10;1.00;;;;;;5072083;28;20443;-58
2021/03/27 02:10:33;;;;;;;18.03;13.40;;;10.10;1.00;;;;;;5072109;28;20783;-60
2021/03/27 02:13:06;;;;;;;16.17;12.70;;;10.10;1.00;;;;;;5067628;28;20517;-58
2021/03/27 02:15:48;;;;;;;16.17;12.50;;;10.20;1.00;;;;;;5071418;28;20444;-58
2021/03/27 02:18:42;;;;;;;16.10;10.97;;;10.30;1.00;;;;;;5070113;28;20450;-58
2021/03/27 02:21:29;;;;;;;15.67;11.80;;;10.30;1.00;;;;;;5070900;28;21094;-57
2021/03/27 02:24:05;;;;;;;13.57;10.30;;;10.30;1.00;;;;;;5068348;28;20456;-58
2021/03/27 02:27:03;;;;;;;16.50;11.23;;;10.40;1.00;;;;;;5072424;28;20894;-57
2021/03/27 02:29:56;;;;;;;21.20;11.43;;;10.50;1.00;;;;;;5070848;28;20460;-59
2021/03/27 02:32:53;;;;;;;13.07;10.87;;;10.50;1.00;;;;;;5088107;28;20466;-57
2021/03/27 02:35:34;;;;;;;13.97;10.30;;;10.50;1.00;;;;;;5078270;28;20445;-58
2021/03/27 02:38:03;;;;;;;15.53;11.57;;;10.50;1.00;;;;;;5070083;28;20439;-59
2021/03/27 02:40:33;;;;;;;15.30;10.93;;;10.50;1.00;;;;;;5064468;28;20493;-59
2021/03/27 02:43:21;;;;;;;14.57;10.17;;;10.60;1.00;;;;;;5070423;28;20443;-59
2021/03/27 02:45:58;;;;;;;14.67;10.80;;;10.50;1.00;;;;;;5068947;28;20456;-58
2021/03/27 02:48:53;;;;;;;15.73;10.50;;;10.50;1.00;;;;;;5066857;28;20456;-58
2021/03/27 02:51:35;;;;;;;13.00;10.23;;;10.40;1.00;;;;;;5069644;28;20444;-58
2021/03/27 02:54:09;;;;;;;15.53;10.30;;;10.40;1.00;;;;;;5069473;28;20962;-59
2021/03/27 02:57:20;;;;;;;15.10;11.40;;;10.60;1.00;;;;;;5068664;28;20908;-59
2021/03/27 03:00:07;;;;;;;14.60;9.57;;;10.50;1.00;;;;;;5008854;28;20457;-58
2021/03/27 03:02:38;;;;;;;14.27;10.17;;;10.50;1.00;;;;;;5007095;28;20488;-59
2021/03/27 03:05:32;;;;;;;11.20;9.30;;;10.50;1.00;;;;;;5049609;28;20485;-59
2021/03/27 03:08:26;;;;;;;15.10;11.33;;;10.50;1.00;;;;;;5070896;28;20517;-59
2021/03/27 03:11:12;;;;;;;13.77;10.27;;;10.40;1.00;;;;;;5069105;28;20898;-58
2021/03/27 03:13:41;;;;;;;15.00;10.60;;;10.60;1.00;;;;;;5070300;28;20476;-58
2021/03/27 03:16:19;;;;;;;14.30;10.43;;;10.60;1.00;;;;;;5070469;28;20450;-59
2021/03/27 03:19:49;;;;;;;12.23;9.33;;;10.60;1.00;;;;;;5070165;28;20849;-61
2021/03/27 03:22:24;;;;;;;14.03;9.90;;;10.70;1.00;;;;;;4927680;28;20486;-58
2021/03/27 03:24:57;;;;;;;13.50;10.10;;;10.80;1.00;;;;;;5067066;28;21058;-59
2021/03/27 03:27:40;;;;;;;14.60;9.30;;;10.80;1.00;;;;;;5070826;28;20728;-59
2021/03/27 03:30:27;;;;;;;15.83;11.00;;;10.90;1.00;;;;;;5071106;28;20481;-60
2021/03/27 03:33:29;;;;;;;14.70;10.57;;;11.00;1.00;;;;;;5070160;28;20444;-60
2021/03/27 03:36:07;;;;;;;16.23;10.70;;;11.00;1.00;;;;;;5068837;28;20444;-59
2021/03/27 03:38:59;;;;;;;13.07;9.83;;;10.90;1.00;;;;;;5069545;28;20432;-58
2021/03/27 03:41:53;;;;;;;13.40;9.80;;;10.90;1.00;;;;;;5069892;28;20621;-58
2021/03/27 03:44:42;;;;;;;14.17;10.00;;;11.00;1.00;;;;;;5068804;28;20482;-58
2021/03/27 03:47:23;;;;;;;13.50;10.47;;;11.10;1.00;;;;;;5070228;28;20495;-59
2021/03/27 03:50:14;;;;;;;18.10;11.07;;;11.10;1.00;;;;;;5067774;28;20444;-59
2021/03/27 03:53:03;;;;;;;15.50;10.73;;;10.90;1.00;;;;;;5069654;28;21075;-58
2021/03/27 03:55:57;;;;;;;15.17;10.17;;;10.90;1.00;;;;;;5050699;28;20444;-58
2021/03/27 03:58:49;;;;;;;13.47;10.30;;;10.80;1.00;;;;;;5084056;28;20870;-59
2021/03/27 04:01:41;;;;;;;13.60;10.10;;;10.80;1.00;;;;;;5066415;28;20495;-58
2021/03/27 04:04:21;;;;;;;12.23;9.53;;;10.70;1.00;;;;;;5068034;28;20976;-58
2021/03/27 04:06:51;;;;;;;13.47;9.77;;;10.80;1.00;;;;;;5070450;28;20550;-58
2021/03/27 04:09:30;;;;;;;13.27;10.23;;;10.80;1.00;;;;;;5069737;28;20427;-59
2021/03/27 04:12:18;;;;;;;14.23;9.20;;;10.70;1.00;;;;;;5067909;28;20457;-59
2021/03/27 04:15:05;;;;;;;13.40;10.33;;;10.70;1.00;;;;;;5069198;28;20435;-59
2021/03/27 04:17:46;;;;;;;15.80;10.13;;;10.80;1.00;;;;;;5069638;28;21029;-60
2021/03/27 04:20:25;;;;;;;14.60;10.60;;;10.80;1.00;;;;;;5069503;28;20489;-59
2021/03/27 04:23:22;;;;;;;13.60;10.47;;;10.80;1.00;;;;;;5069473;28;20443;-58
2021/03/27 04:26:04;;;;;;;14.27;9.83;;;10.80;1.00;;;;;;5068422;28;20473;-58
2021/03/27 04:28:50;;;;;;;16.33;9.97;;;10.80;1.00;;;;;;5070314;28;20517;-58
2021/03/27 04:31:32;;;;;;;14.27;11.77;;;11.00;1.00;;;;;;5067313;28;20453;-58
2021/03/27 04:34:18;;;;;;;14.43;10.40;;;11.00;1.00;;;;;;5067268;28;20513;-57
2021/03/27 04:37:11;;;;;;;18.77;10.23;;;11.00;1.00;;;;;;5068388;28;20509;-58
2021/03/27 04:39:49;;;;;;;17.63;11.43;;;11.10;1.00;;;;;;5069069;28;20513;-59
2021/03/27 04:42:34;;;;;;;12.90;10.37;;;11.10;1.00;;;;;;5067486;28;20474;-57
2021/03/27 04:45:37;;;;;;;14.47;11.63;;;11.00;1.00;;;;;;5068879;28;20922;-59
2021/03/27 04:48:31;;;;;;;15.67;11.60;;;10.90;1.00;;;;;;5027400;28;20437;-58
2021/03/27 04:51:36;;;;;;;19.83;11.67;;;10.80;1.00;;;;;;5070341;28;20445;-58
2021/03/27 04:54:32;;;;;;;15.60;10.60;;;10.70;1.00;;;;;;5071465;28;20451;-58
2021/03/27 04:57:21;;;;;;;16.53;11.20;;;10.60;1.00;;;;;;5069041;28;20447;-59
2021/03/27 04:59:56;;;;;;;15.23;10.43;;;10.70;1.00;;;;;;5071970;28;20439;-58
2021/03/27 05:02:46;;;;;;;14.50;11.57;;;10.70;1.00;;;;;;5067716;28;20471;-59
2021/03/27 05:05:27;;;;;;;19.13;11.77;;;11.10;1.00;;;;;;5040528;28;20799;-57
2021/03/27 05:08:27;;;;;;;16.07;11.00;;;10.70;1.00;;;;;;5072914;28;20442;-58
2021/03/27 05:11:01;;;;;;;16.90;10.40;;;10.70;1.00;;;;;;5070391;28;20451;-58
2021/03/27 05:13:41;;;;;;;16.57;12.60;;;10.60;1.00;;;;;;5067076;28;20538;-58
2021/03/27 05:16:34;;;;;;;17.20;12.87;;;10.70;1.00;;;;;;5069513;28;20453;-59
2021/03/27 05:19:12;;;;;;;18.87;11.50;;;10.70;1.00;;;;;;5070776;28;20440;-58
2021/03/27 05:21:38;;;;;;;13.60;11.03;;;10.80;1.00;;;;;;5069682;28;20826;-58
2021/03/27 05:24:29;;;;;;;20.03;12.33;;;10.90;1.00;;;;;;5072229;28;20526;-59
2021/03/27 05:27:08;;;;;;;17.17;12.03;;;11.00;1.00;;;;;;5072003;28;20288;-58
2021/03/27 05:30:00;;;;;;;20.00;12.53;;;11.00;1.00;;;;;;5071910;28;20855;-58
2021/03/27 05:32:47;;;;;;;21.23;13.50;;;11.10;1.00;;;;;;5066667;28;21063;-58
2021/03/27 05:35:39;;;;;;;18.10;13.77;;;11.20;1.00;;;;;;5070658;28;20486;-58
2021/03/27 05:38:12;;;;;;;17.13;13.33;;;11.30;1.00;;;;;;5064226;28;20455;-59
2021/03/27 05:41:04;;;;;;;17.43;13.17;;;11.40;1.00;;;;;;5070222;28;20452;-59
2021/03/27 05:43:57;;;;;;;16.20;12.90;;;11.50;1.00;;;;;;5071826;28;20429;-60
2021/03/27 05:46:40;;;;;;;17.10;12.10;;;11.60;1.00;;;;;;5069276;28;20444;-58
2021/03/27 05:49:43;;;;;;;17.40;13.10;;;11.70;1.00;;;;;;5070548;28;20421;-59
2021/03/27 05:52:27;;;;;;;15.33;12.70;;;11.70;1.00;;;;;;5069796;28;20830;-58
2021/03/27 05:55:25;;;;;;;17.60;12.90;;;11.80;1.00;;;;;;5066551;28;20495;-59
2021/03/27 05:58:01;;;;;;;20.20;13.40;;;11.70;1.00;;;;;;5056196;28;20440;-59
2021/03/27 06:00:54;;;;;;;18.03;12.20;;;11.70;1.00;;;;;;5071390;28;20432;-59
2021/03/27 06:03:48;;;;;;;19.63;13.13;;;11.70;1.00;;;;;;5072105;28;20464;-59
2021/03/27 06:06:39;;;;;;;19.63;13.17;;;11.70;1.00;;;;;;5070531;28;20581;-60
2021/03/27 06:09:26;;;;;;;21.53;14.23;;;11.80;1.00;;;;;;5066751;28;20517;-59
2021/03/27 06:11:55;;;;;;;19.77;13.93;;;11.80;1.00;;;;;;5069352;28;20498;-60
2021/03/27 06:14:32;;;;;;;18.10;14.07;;;12.00;1.00;;;;;;5072070;28;20833;-58
2021/03/27 06:17:36;;;;;;;18.90;13.60;;;12.00;1.00;;;;;;5070827;28;20456;-59
2021/03/27 06:20:13;;;;;;;18.03;13.90;;;12.20;1.00;;;;;;5071554;28;21007;-58
2021/03/27 06:22:56;;;;;;;16.87;13.23;;;12.20;1.00;;;;;;5070216;28;21002;-58
2021/03/27 06:25:39;;;;;;;21.37;13.20;;;12.20;1.00;;;;;;5070955;28;20519;-58
2021/03/27 06:28:42;;;;;;;20.53;14.00;;;12.30;1.00;;;;;;5069870;28;20436;-57
2021/03/27 06:31:30;;;;;;;18.30;13.57;;;12.40;1.00;;;;;;5070852;28;20429;-59
2021/03/27 06:34:04;;;;;;;15.03;12.97;;;12.50;1.00;;;;;;5066678;28;20449;-59
2021/03/27 06:36:54;;;;;;;17.00;13.07;;;12.70;1.00;;;;;;5071408;28;20937;-59
2021/03/27 06:39:39;;;;;;;14.87;12.53;;;12.80;1.00;;;;;;5070259;28;20445;-59
2021/03/27 06:42:16;;;;;;;21.00;12.70;;;12.90;1.00;;;;;;5069825;28;20551;-59
2021/03/27 06:45:00;;;;;;;15.77;12.60;;;13.00;1.00;;;;;;5079896;28;20798;-58
2021/03/27 06:47:29;;;;;;;22.30;14.17;;;13.20;1.00;;;;;;5069282;28;20476;-58
2021/03/27 06:50:29;;;;;;;16.00;13.20;;;13.30;1.00;;;;;;5066865;28;21014;-58
2021/03/27 06:53:26;;;;;;;17.53;13.07;;;13.40;1.00;;;;;;5069273;28;20441;-60
2021/03/27 06:56:29;;;;;;;16.37;13.73;;;13.30;1.00;;;;;;5068226;28;20540;-58
2021/03/27 06:59:13;;;;;;;18.67;13.50;;;13.40;1.00;;;;;;5067898;28;20456;-59
2021/03/27 07:02:23;;;;;;;20.37;13.03;;;13.40;1.00;;;;;;5068274;28;20468;-61
2021/03/27 07:05:43;;;;;;;17.40;13.33;;;13.30;1.00;;;;;;5070280;28;20448;-59
2021/03/27 07:08:38;;;;;;;21.83;13.67;;;13.10;1.00;;;;;;5068065;28;20426;-58
2021/03/27 07:11:38;;;;;;;19.10;13.10;;;13.10;1.00;;;;;;5088190;28;20455;-58
2021/03/27 07:14:03;;;;;;;18.83;12.73;;;13.10;1.00;;;;;;5090061;28;20440;-60
2021/03/27 07:16:34;;;;;;;18.13;14.40;;;13.20;1.00;;;;;;5070488;28;20437;-61
2021/03/27 07:19:05;;;;;;;19.83;13.00;;;13.20;1.00;;;;;;5070051;28;20203;-61
2021/03/27 07:22:26;;;;;;;18.20;12.70;;;13.20;1.00;;;;;;5069968;28;20564;-63
2021/03/27 07:25:03;;;;;;;18.43;11.90;;;13.20;1.00;;;;;;5006510;28;20878;-61
2021/03/27 07:27:47;;;;;;;21.20;12.67;;;13.10;1.00;;;;;;5008411;28;20471;-63
2021/03/27 07:30:50;;;;;;;14.47;11.27;;;13.20;1.00;;;;;;5055935;28;20437;-63
2021/03/27 07:33:37;;;;;;;9.17;7.83;;;13.50;1.00;;;;;;5070374;28;20449;-62
2021/03/27 07:36:38;;;;;;;9.37;7.13;;;13.90;1.00;;;;;;5070041;28;20767;-59
2021/03/27 07:39:24;;;;;;;6.53;5.53;;;13.70;1.00;;;;;;5069829;28;20444;-62
2021/03/27 07:42:27;;;;;;;9.00;6.30;;;13.80;1.00;;;;;;5070205;28;20565;-59
2021/03/27 07:45:33;;;;;;;6.30;4.40;;;13.30;1.00;;;;;;5069877;28;20469;-60
2021/03/27 07:48:37;;;;;;;4.90;3.37;;;12.80;1.00;;;;;;5070415;28;20867;-60
2021/03/27 07:51:25;;;;;;;6.30;3.57;;;12.80;1.00;;;;;;5070226;28;20452;-59
2021/03/27 07:53:51;;;;;;;3.67;3.30;;;12.30;1.00;;;;;;5066834;28;20949;-59
2021/03/27 07:56:16;;;;;;;4.07;3.67;;;12.30;1.00;;;;;;5069301;28;20456;-59
2021/03/27 07:59:12;;;;;;;3.37;3.07;;;12.10;1.00;;;;;;5069654;28;20582;-60
2021/03/27 08:01:50;;;;;;;3.50;3.20;;;12.00;1.00;;;;;;5068497;28;20210;-59
2021/03/27 08:04:51;;;;;;;5.47;3.03;;;12.10;1.00;;;;;;5068237;28;20459;-59
2021/03/27 08:07:21;;;;;;;3.77;3.23;;;12.10;1.00;;;;;;5069949;28;20443;-60
2021/03/27 08:10:06;;;;;;;3.67;3.10;;;12.20;1.00;;;;;;5069810;28;20437;-60
2021/03/27 08:12:54;;;;;;;2.87;2.50;;;12.40;1.00;;;;;;5069340;28;20941;-59
2021/03/27 08:15:49;;;;;;;3.50;2.83;;;12.40;1.00;;;;;;5070027;28;20431;-60
2021/03/27 08:18:55;;;;;;;2.20;1.70;;;12.40;1.00;;;;;;5053121;28;20461;-60
2021/03/27 08:21:35;;;;;;;4.07;2.40;;;12.60;1.00;;;;;;5066286;28;20757;-59
2021/03/27 08:24:27;;;;;;;1.90;1.60;;;12.70;1.00;;;;;;5069844;28;20795;-60
2021/03/27 08:27:20;;;;;;;5.73;2.13;;;12.80;1.00;;;;;;5072495;28;20432;-61
2021/03/27 08:30:23;;;;;;;3.90;2.00;;;12.80;1.00;;;;;;5072309;28;20837;-60
2021/03/27 08:33:08;;;;;;;2.20;2.00;;;13.00;1.00;;;;;;5081948;28;20490;-62
2021/03/27 08:36:10;;;;;;;1.60;1.50;;;13.40;1.00;;;;;;5071463;28;20474;-59
2021/03/27 08:39:03;;;;;;;2.10;1.87;;;13.20;1.00;;;;;;5075797;28;20444;-62
2021/03/27 08:41:56;;;;;;;2.20;1.70;;;13.40;1.00;;;;;;5073531;28;20494;-61
2021/03/27 08:44:42;;;;;;;4.13;2.00;;;13.40;1.00;;;;;;5073720;28;20432;-58
2021/03/27 08:47:35;;;;;;;1.50;1.40;;;13.40;1.00;;;;;;5071366;28;20436;-58
2021/03/27 08:50:15;;;;;;;2.83;2.30;;;13.60;1.00;;;;;;5071305;28;20447;-62
2021/03/27 08:53:02;;;;;;;2.77;2.20;;;13.60;1.00;;;;;;5071767;28;20448;-62
2021/03/27 08:55:34;;;;;;;2.20;1.83;;;13.50;1.00;;;;;;5072044;28;20436;-60
2021/03/27 08:58:27;;;;;;;3.17;2.00;;;12.70;1.00;;;;;;5082030;28;21050;-61
2021/03/27 09:01:27;;;;;;;2.50;2.30;;;11.70;1.00;;;;;;5058109;28;21195;-60
2021/03/27 09:04:01;;;;;;;3.00;2.70;;;10.80;1.00;;;;;;5069126;28;20455;-59
2021/03/27 09:06:53;;;;;;;4.00;3.60;;;10.50;1.00;;;;;;5072708;28;20432;-58
2021/03/27 09:09:55;;;;;;;3.87;3.47;;;10.30;1.00;;;;;;5073208;28;20471;-60
2021/03/27 09:12:32;;;;;;;3.37;3.07;;;10.20;1.00;;;;;;5070860;28;20440;-61
2021/03/27 09:15:20;;;;;;;4.67;4.23;;;10.10;1.00;;;;;;5071069;28;20438;-60
2021/03/27 09:18:04;;;;;;;4.10;3.70;;;10.10;1.00;;;;;;5070669;28;20429;-61
2021/03/27 09:20:48;;;;;;;2.50;2.30;;;10.00;1.00;;;;;;5070863;28;20450;-61
2021/03/27 09:23:40;;;;;;;3.50;2.53;;;9.80;1.00;;;;;;5070946;28;20445;-59
2021/03/27 09:26:23;;;;;;;2.93;2.40;;;9.50;1.00;;;;;;5069135;28;20560;-59
2021/03/27 09:29:17;;;;;;;4.70;2.10;;;9.60;1.00;;;;;;5070642;28;21081;-61
2021/03/27 09:32:07;;;;;;;1.70;1.60;;;9.50;1.00;;;;;;5071681;28;20452;-59
2021/03/27 09:34:54;;;;;;;3.60;1.80;;;9.50;1.00;;;;;;5071204;28;20530;-59
2021/03/27 09:37:30;;;;;;;2.60;1.47;;;9.30;1.00;;;;;;5070716;28;20469;-61
2021/03/27 09:40:23;;;;;;;2.77;1.20;;;9.10;1.00;;;;;;5071736;28;20473;-61
2021/03/27 09:43:20;;;;;;;1.10;0.97;;;9.20;1.00;;;;;;5067922;28;20457;-59
2021/03/27 09:46:00;;;;;;;5.47;1.47;;;9.30;1.00;;;;;;5072030;28;20437;-60
2021/03/27 09:48:46;;;;;;;1.90;1.20;;;9.90;1.00;;;;;;5082946;28;20449;-61
2021/03/27 09:51:41;;;;;;;1.90;0.83;;;9.90;1.00;;;;;;5071399;28;20791;-60
2021/03/27 09:54:25;;;;;;;1.70;1.00;;;10.40;1.00;;;;;;5069270;28;20451;-60
2021/03/27 09:57:18;;;;;;;1.40;0.80;;;10.60;1.00;;;;;;5071343;28;20528;-60
2021/03/27 09:59:47;;;;;;;1.20;1.00;;;10.80;1.00;;;;;;5069730;28;20467;-59
2021/03/27 10:02:38;;;;;;;1.80;1.50;;;10.80;1.00;;;;;;5071464;28;20555;-60
2021/03/27 10:05:50;;;;;;;2.20;1.60;;;10.90;1.00;;;;;;5064713;28;20466;-61
2021/03/27 10:08:26;;;;;;;2.20;1.60;;;11.10;1.00;;;;;;5070091;28;20430;-61
2021/03/27 10:10:56;;;;;;;1.50;1.40;;;11.00;1.00;;;;;;5070070;28;20426;-60
2021/03/27 10:13:57;;;;;;;1.97;1.87;;;11.00;1.00;;;;;;5071253;28;20474;-58
2021/03/27 10:16:41;;;;;;;1.90;1.70;;;11.30;1.00;;;;;;5069424;28;20534;-59
2021/03/27 10:19:13;;;;;;;2.57;1.60;;;11.50;1.00;;;;;;5071041;28;20435;-59
2021/03/27 10:21:48;;;;;;;2.40;2.13;;;11.60;1.00;;;;;;5069644;28;20502;-59
2021/03/27 10:24:32;;;;;;;2.30;1.60;;;11.80;1.00;;;;;;5070606;28;20475;-59
2021/03/27 10:27:38;;;;;;;1.33;1.23;;;12.00;1.00;;;;;;5070076;28;20479;-61
2021/03/27 10:30:13;;;;;;;1.53;1.30;;;12.10;1.00;;;;;;5067914;28;20438;-60
2021/03/27 10:32:59;;;;;;;1.53;1.43;;;12.00;1.00;;;;;;5069434;28;20465;-59
2021/03/27 10:35:45;;;;;;;1.40;1.30;;;12.20;1.00;;;;;;5070275;28;20968;-59
2021/03/27 10:38:38;;;;;;;1.50;1.40;;;12.30;1.00;;;;;;5071511;28;20442;-61
2021/03/27 10:41:25;;;;;;;2.10;1.40;;;12.10;1.00;;;;;;5070478;28;20486;-62
2021/03/27 10:44:09;;;;;;;3.53;1.30;;;11.70;1.00;;;;;;5070090;28;20451;-59
2021/03/27 10:46:48;;;;;;;1.30;1.20;;;11.70;1.00;;;;;;5066721;28;20481;-60
2021/03/27 10:49:22;;;;;;;2.60;1.30;;;11.70;1.00;;;;;;5070034;28;20447;-60
2021/03/27 10:52:07;;;;;;;1.40;1.30;;;11.80;1.00;;;;;;5068807;28;20443;-62
2021/03/27 10:55:03;;;;;;;1.10;1.00;;;12.00;1.00;;;;;;5070798;28;20509;-61
2021/03/27 10:58:10;;;;;;;1.20;1.03;;;12.10;1.00;;;;;;5080609;28;20961;-61
2021/03/27 11:01:02;;;;;;;1.47;1.37;;;12.10;1.00;;;;;;5071718;28;20433;-62
2021/03/27 11:04:25;;;;;;;1.33;1.23;;;12.30;1.00;;;;;;5069655;28;20987;-61
2021/03/27 11:07:09;;;;;;;1.17;1.13;;;12.80;1.00;;;;;;5006643;28;20480;-61
2021/03/27 11:10:01;;;;;;;1.13;1.00;;;13.10;1.00;;;;;;5008544;28;21044;-61
2021/03/27 11:12:54;;;;;;;2.17;1.20;;;13.00;1.00;;;;;;5056128;28;20456;-62
2021/03/27 11:15:44;;;;;;;1.67;1.00;;;13.20;1.00;;;;;;5070933;28;20766;-60
2021/03/27 11:18:42;;;;;;;0.97;0.90;;;13.60;1.00;;;;;;5065373;28;20449;-62
2021/03/27 11:21:15;;;;;;;4.73;1.00;;;13.70;1.00;;;;;;5069860;28;20465;-61
2021/03/27 11:24:08;;;;;;;1.20;0.90;;;13.60;1.00;;;;;;5070530;28;20456;-62
2021/03/27 11:26:43;;;;;;;1.20;1.10;;;13.40;1.00;;;;;;5069269;28;20448;-61
2021/03/27 11:29:34;;;;;;;1.60;1.00;;;13.60;1.00;;;;;;5068860;28;20440;-60
2021/03/27 11:32:15;;;;;;;1.00;0.80;;;13.40;1.00;;;;;;5070185;28;20567;-60
2021/03/27 11:34:46;;;;;;;0.70;0.70;;;13.50;1.00;;;;;;5070395;28;20957;-61
2021/03/27 11:37:18;;;;;;;2.20;0.87;;;13.70;1.00;;;;;;5065259;28;21031;-61
2021/03/27 11:39:52;;;;;;;1.33;0.90;;;13.50;1.00;;;;;;5068318;28;20454;-61
2021/03/27 11:43:01;;;;;;;0.93;0.70;;;13.40;1.00;;;;;;5070044;28;20469;-62
2021/03/27 11:46:09;;;;;;;1.60;0.93;;;13.90;1.00;;;;;;5008209;28;20936;-62
2021/03/27 11:49:21;;;;;;;0.90;0.70;;;14.30;1.00;;;;;;5005227;28;20447;-61
2021/03/27 11:51:57;;;;;;;1.10;0.70;;;14.20;1.00;;;;;;5048801;28;20445;-61
2021/03/27 11:54:30;;;;;;;1.50;0.50;;;13.90;1.00;;;;;;5067202;28;20798;-63
2021/03/27 11:57:22;;;;;;;1.10;0.43;;;13.70;1.00;;;;;;5065875;28;20451;-63
2021/03/27 12:02:55;;;;;;;1.63;0.60;;;14.00;1.00;;;;;;5072879;28;20476;-61
2021/03/27 12:05:28;;;;;;;0.90;0.67;;;13.90;1.00;;;;;;5068270;28;20452;-61
2021/03/27 12:08:28;;;;;;;3.03;0.70;;;13.70;1.00;;;;;;5069729;28;20795;-61
2021/03/27 12:11:12;;;;;;;0.63;0.40;;;11.60;1.00;;;;;;5067027;28;20863;-61
2021/03/27 12:13:45;;;;;;;0.97;0.70;;;14.10;1.00;;;;;;5084826;28;20434;-62
2021/03/27 12:16:26;;;;;;;0.73;0.40;;;14.10;1.00;;;;;;5089560;28;20990;-61
2021/03/27 12:19:16;;;;;;;0.70;0.70;;;14.30;1.00;;;;;;5090040;28;20433;-62
2021/03/27 12:22:00;;;;;;;1.40;0.60;;;14.20;1.00;;;;;;5068779;28;20468;-60
2021/03/27 12:24:29;;;;;;;1.47;0.80;;;14.20;1.00;;;;;;5068645;28;20465;-61
2021/03/27 12:27:16;;;;;;;1.77;0.67;;;13.90;1.00;;;;;;5069169;28;20444;-62
2021/03/27 12:29:47;;;;;;;3.10;0.90;;;13.90;1.00;;;;;;5069741;28;20432;-61
2021/03/27 12:32:34;;;;;;;2.30;1.00;;;14.00;1.00;;;;;;5075494;28;20436;-60
2021/03/27 12:35:17;;;;;;;3.77;0.97;;;13.90;1.00;;;;;;5075504;28;20440;-61
2021/03/27 12:37:49;;;;;;;1.07;0.90;;;13.70;1.00;;;;;;5069622;28;20445;-60
2021/03/27 12:40:27;;;;;;;0.67;0.50;;;13.50;1.00;;;;;;5068969;28;20527;-61
2021/03/27 12:43:10;;;;;;;1.23;0.77;;;13.50;1.00;;;;;;5069372;28;20476;-59
2021/03/27 12:45:45;;;;;;;2.20;0.87;;;13.90;1.00;;;;;;5068096;28;20429;-60
2021/03/27 12:48:17;;;;;;;3.63;0.90;;;13.80;1.00;;;;;;5066971;28;20448;-61
2021/03/27 12:51:06;;;;;;;0.80;0.50;;;13.50;1.00;;;;;;5069428;28;20770;-61
2021/03/27 12:53:49;;;;;;;0.70;0.70;;;13.50;1.00;;;;;;5064168;28;20531;-59
2021/03/27 12:56:39;;;;;;;0.93;0.70;;;13.60;1.00;;;;;;5066365;28;20441;-59
2021/03/27 12:59:23;;;;;;;0.70;0.57;;;13.90;1.00;;;;;;5068384;28;20437;-60
2021/03/27 13:02:21;;;;;;;1.37;0.60;;;14.30;1.00;;;;;;5068922;28;20859;-60
2021/03/27 13:05:11;;;;;;;0.90;0.90;;;14.70;1.00;;;;;;5066608;28;20499;-59
2021/03/27 13:07:59;;;;;;;1.20;0.83;;;15.00;1.00;;;;;;5066973;28;20438;-58
2021/03/27 13:11:01;;;;;;;2.40;0.60;;;14.90;1.00;;;;;;5061073;28;20791;-58
2021/03/27 13:14:04;;;;;;;0.93;0.50;;;14.90;1.00;;;;;;5073367;28;20813;-60
2021/03/27 13:16:47;;;;;;;2.20;0.77;;;15.10;1.00;;;;;;5070384;28;20475;-58
2021/03/27 13:19:18;;;;;;;1.37;0.60;;;14.60;1.00;;;;;;5070554;28;20680;-60
2021/03/27 13:21:56;;;;;;;0.87;0.57;;;14.20;1.00;;;;;;5072639;28;20818;-60
2021/03/27 13:24:35;;;;;;;0.60;0.60;;;14.20;1.00;;;;;;5070771;28;20510;-64
2021/03/27 13:27:10;;;;;;;1.20;0.80;;;14.30;1.00;;;;;;5065799;28;20436;-64
2021/03/27 13:29:41;;;;;;;1.50;0.73;;;14.10;1.00;;;;;;5072269;28;20433;-64
2021/03/27 13:32:24;;;;;;;1.33;0.80;;;13.80;1.00;;;;;;5082293;28;20469;-64
2021/03/27 13:35:03;;;;;;;2.63;0.80;;;14.10;1.00;;;;;;5071943;28;20784;-64
2021/03/27 13:37:28;;;;;;;0.97;0.87;;;14.10;1.00;;;;;;5072640;28;20444;-64
2021/03/27 13:40:09;;;;;;;2.10;0.83;;;13.70;1.00;;;;;;5071946;28;20452;-64
2021/03/27 13:43:01;;;;;;;2.43;1.03;;;13.60;1.00;;;;;;5082840;28;20251;-63
2021/03/27 13:45:42;;;;;;;3.23;0.70;;;14.00;1.00;;;;;;5092753;28;20440;-63
2021/03/27 13:48:29;;;;;;;2.03;0.73;;;14.00;1.00;;;;;;5077306;28;20525;-65
2021/03/27 13:51:32;;;;;;;1.53;0.80;;;13.90;1.00;;;;;;5086814;28;20478;-64
2021/03/27 13:54:04;;;;;;;3.53;0.70;;;13.40;1.00;;;;;;5092285;28;20438;-64
2021/03/27 13:56:52;;;;;;;7.13;1.40;;;12.40;1.00;;;;;;5087366;28;20433;-63
2021/03/27 13:59:34;;;;;;;10.47;1.30;;;10.90;1.00;;;;;;5074258;28;20431;-64
2021/03/27 14:02:37;;;;;;;6.63;0.90;;;10.00;1.00;;;;;;5089112;28;20941;-64
2021/03/27 14:05:34;;;;;;;2.03;0.90;;;9.70;1.00;;;;;;5079025;28;20525;-63
2021/03/27 14:08:42;;;;;;;5.17;1.37;;;9.00;1.00;;;;;;5069979;28;20430;-64
2021/03/27 14:11:15;;;;;;;1.87;0.80;;;8.70;1.00;;;;;;5029394;28;20441;-64
2021/03/27 14:13:42;;;;;;;2.30;1.30;;;8.70;1.00;;;;;;5071968;28;21062;-63
2021/03/27 14:16:18;;;;;;;3.83;0.80;;;8.60;1.00;;;;;;5075100;28;20512;-64
2021/03/27 14:19:00;;;;;;;1.60;0.77;;;8.30;1.00;;;;;;5070336;28;20487;-63
2021/03/27 14:21:50;;;;;;;2.63;0.87;;;8.40;1.00;;;;;;5068887;28;20976;-65
2021/03/27 14:24:31;;;;;;;3.23;0.70;;;8.40;1.00;;;;;;5069657;28;20526;-64